American Constellation — WDJ3099 — position and weather

sailwx.info

Track history (hours):
 
Tides and Currents Weather Stations Pressure Air Temp Water Temp Dewpoint Dewpoint Depression Visibility Wind Speed Wind Dir Waves Ship Positions

American Constellation

Owner: American Cruise Lines, Inc., Guilford, CT. More information available from US FCC via Universal Licensing System and Coast Guard Vessel Documentation Center.

Last reported at 2018-Jun-20 23:36 UTC. Time now 2018-Jun-25 11:57 UTC.
Position N 58°16' W 135°39'.

Length 82 m; draft 3 m.

Type: Passenger vessel. MMSI: 367764750.

Date/timePositionNaut miles runAvg speedWind from/ knotsBaromVisibWave heightAir tempDewpointWater temp
2018-Jun-20 23:36N 58°16' W 135°39'111.2
2018-Jun-20 23:30N 58°16' W 135°41'3 5.6
2018-Jun-20 23:00N 58°17' W 135°46'1 1.3
2018-Jun-20 22:30N 58°18' W 135°46'510.8
2018-Jun-20 22:00N 58°20' W 135°55'510.9
2018-Jun-20 21:30N 58°26' W 135°56'2 4.2
2018-Jun-20 20:59N 58°27' W 135°53'0 0.0
2018-Jun-20 20:29N 58°27' W 135°53'0 0.0
2018-Jun-20 19:59N 58°27' W 135°53'0 0.0
2018-Jun-20 19:29N 58°27' W 135°53'0 0.0
2018-Jun-20 18:59N 58°27' W 135°53'0 0.0
2018-Jun-20 18:29N 58°27' W 135°53'0 0.0
2018-Jun-20 17:59N 58°27' W 135°53'0 0.9
2018-Jun-20 17:30N 58°27' W 135°54'3 6.1
2018-Jun-20 17:00N 58°27' W 135°60'510.2
2018-Jun-20 16:31N 58°31' W 136°05'4 7.9
2018-Jun-20 16:00N 58°34' W 136°08'510.7
2018-Jun-20 15:30N 58°39' W 136°15'4 0.3
2018-Jun-20 03:46N 58°41' W 136°20'313.3
2018-Jun-20 03:30N 58°44' W 136°22'2 0.3
2018-Jun-19 19:15N 58°45' W 136°17'311.8
2018-Jun-19 18:59N 58°43' W 136°13'511.7
2018-Jun-19 18:31N 58°39' W 136°05'2 3.2
2018-Jun-19 18:00N 58°38' W 136°02'3 6.7
2018-Jun-19 17:31N 58°35' W 136°03'510.5
2018-Jun-19 17:00N 58°30' W 136°03'4 8.0
2018-Jun-19 16:31N 58°26' W 135°60'4 7.2
2018-Jun-19 16:01N 58°27' W 135°53'0 0.0
2018-Jun-19 15:31N 58°27' W 135°53'0 0.0
2018-Jun-19 15:01N 58°27' W 135°53'2 4.6
2018-Jun-19 14:30N 58°26' W 135°56'5 9.3
2018-Jun-19 14:00N 58°21' W 135°57'4 8.5
2018-Jun-19 13:30N 58°19' W 135°49'4 8.5
2018-Jun-19 13:00N 58°18' W 135°42'4 8.5
2018-Jun-19 12:30N 58°16' W 135°34'5 8.7
2018-Jun-19 11:59N 58°15' W 135°26'  
2018-Jun-14 04:22N 54°39' W 130°45'3 9.3
2018-Jun-14 04:00N 54°36' W 130°44'4 8.7
2018-Jun-14 03:30N 54°31' W 130°43'5 9.3
2018-Jun-14 03:00N 54°27' W 130°40'5 9.4
2018-Jun-14 02:30N 54°23' W 130°38'5 9.4
2018-Jun-14 02:00N 54°18' W 130°35'5 9.7
2018-Jun-14 01:30N 54°14' W 130°30'5 9.9
2018-Jun-14 01:00N 54°10' W 130°26'5 9.6
2018-Jun-14 00:30N 54°06' W 130°21'5 9.4
2018-Jun-14 00:00N 54°03' W 130°15'5 9.7
2018-Jun-13 23:30N 53°58' W 130°12'4 8.9
2018-Jun-13 23:00N 53°54' W 130°09'5 9.5
2018-Jun-13 22:31N 53°51' W 130°02'5 9.3
2018-Jun-13 22:00N 53°48' W 129°57'85 9.2
2018-Jun-13 12:46N 52°39' W 128°32'2 9.3
2018-Jun-13 12:31N 52°37' W 128°30'610.7
2018-Jun-13 12:00N 52°32' W 128°28'510.3
2018-Jun-13 11:30N 52°27' W 128°28'5 9.0
2018-Jun-13 11:00N 52°23' W 128°31'4 8.6
2018-Jun-13 10:30N 52°18' W 128°30'5 9.7
2018-Jun-13 10:00N 52°16' W 128°23'510.9
2018-Jun-13 09:30N 52°14' W 128°15'510.0
2018-Jun-13 09:00N 52°12' W 128°07'4 8.4
2018-Jun-13 08:30N 52°08' W 128°08'4 8.8
2018-Jun-13 08:00N 52°04' W 128°03'5 9.6
2018-Jun-13 07:30N 52°03' W 127°56'510.1
2018-Jun-13 07:00N 51°58' W 127°56'510.2
2018-Jun-13 06:30N 51°53' W 127°56'510.6
2018-Jun-13 06:00N 51°47' W 127°56'510.9
2018-Jun-13 05:30N 51°42' W 127°55'611.9
2018-Jun-13 05:01N 51°36' W 127°53'612.3
2018-Jun-13 04:30N 51°30' W 127°52'612.6
2018-Jun-13 04:01N 51°24' W 127°52'612.2
2018-Jun-13 03:31N 51°18' W 127°53'612.1
2018-Jun-13 03:00N 51°12' W 127°51'612.5
2018-Jun-13 02:30N 51°07' W 127°45'612.7
2018-Jun-13 02:00N 51°02' W 127°38'713.0
2018-Jun-13 01:30N 50°58' W 127°30'714.0
2018-Jun-13 01:01N 50°53' W 127°22'713.2
2018-Jun-13 00:31N 50°50' W 127°12'612.7
2018-Jun-13 00:00N 50°47' W 127°04'713.1
2018-Jun-12 23:30N 50°43' W 126°56'6110.8
2018-Jun-12 17:50N 50°20' W 125°26'3 9.7
2018-Jun-12 17:30N 50°17' W 125°24'611.3
2018-Jun-12 17:00N 50°12' W 125°22'5 9.6
2018-Jun-12 16:30N 50°07' W 125°19'4 8.1
2018-Jun-12 16:00N 50°04' W 125°15'5 9.5
2018-Jun-12 15:30N 49°60' W 125°13'4 7.4
2018-Jun-12 15:00N 49°57' W 125°08'3 7.0
2018-Jun-12 14:30N 49°55' W 125°04'3 6.8
2018-Jun-12 14:01N 49°53' W 125°00'3 6.3
2018-Jun-12 13:30N 49°51' W 124°56'3 7.0
2018-Jun-12 13:00N 49°48' W 124°52'3 7.0
2018-Jun-12 12:30N 49°46' W 124°49'4 7.0
2018-Jun-12 12:00N 49°44' W 124°44'4 7.6
2018-Jun-12 11:30N 49°42' W 124°39'4 7.6
2018-Jun-12 11:00N 49°40' W 124°35'4 7.7
2018-Jun-12 10:31N 49°37' W 124°30'5 7.7
2018-Jun-12 09:50N 49°34' W 124°23'3 7.7
2018-Jun-12 09:30N 49°33' W 124°20'9 8.9
2018-Jun-12 08:31N 49°29' W 124°08'1 9.9
2018-Jun-12 08:28N 49°28' W 124°08'5 9.9
2018-Jun-12 07:57N 49°25' W 124°02'2111.0
2018-Jun-12 06:02N 49°11' W 123°38'111.3
2018-Jun-12 05:56N 49°10' W 123°36'611.6
2018-Jun-12 05:22N 49°05' W 123°30'511.6
2018-Jun-12 04:58N 49°01' W 123°25'511.1
2018-Jun-12 04:30N 48°58' W 123°19'610.8
2018-Jun-12 03:59N 48°54' W 123°13'510.7
2018-Jun-12 03:29N 48°51' W 123°06'510.4
2018-Jun-12 02:59N 48°48' W 123°00'4 8.8
2018-Jun-12 02:30N 48°44' W 122°59'5 9.6
2018-Jun-12 02:00N 48°39' W 123°02'4 8.7
2018-Jun-12 01:30N 48°35' W 123°02'3 5.1
2018-Jun-12 01:00N 48°32' W 123°01'0 0.0
2018-Jun-12 00:29N 48°32' W 123°01'0 0.0
2018-Jun-11 23:59N 48°32' W 123°01'0 0.0
2018-Jun-11 23:26N 48°32' W 123°01'0 0.0
2018-Jun-11 22:59N 48°32' W 123°01'0 0.0
2018-Jun-11 22:29N 48°32' W 123°01'0 0.0
2018-Jun-11 21:59N 48°32' W 123°01'0 0.0
2018-Jun-11 21:26N 48°32' W 123°01'0 0.0
2018-Jun-11 20:59N 48°32' W 123°01'0 0.0
2018-Jun-11 20:23N 48°32' W 123°01'0 0.0
2018-Jun-11 19:59N 48°32' W 123°01'0 0.0
2018-Jun-11 19:29N 48°32' W 123°01'0 0.0
2018-Jun-11 18:59N 48°32' W 123°01'0 0.0
2018-Jun-11 18:20N 48°32' W 123°01'0 0.0
2018-Jun-11 17:50N 48°32' W 123°01'0 0.0
2018-Jun-11 17:29N 48°32' W 123°01'0 0.0
2018-Jun-11 16:59N 48°32' W 123°01'0 0.0
2018-Jun-11 16:29N 48°32' W 123°01'0 0.0
2018-Jun-11 15:59N 48°32' W 123°01'0 0.0
2018-Jun-11 15:29N 48°32' W 123°01'0 0.0
2018-Jun-11 14:59N 48°32' W 123°01'1 2.1
2018-Jun-11 14:30N 48°33' W 122°59'3 6.6
2018-Jun-11 14:00N 48°34' W 122°55'4 7.4
2018-Jun-11 13:30N 48°33' W 122°49'4 8.9
2018-Jun-11 13:00N 48°31' W 122°43'4 8.0
2018-Jun-11 12:30N 48°31' W 122°37'0 0.0
2018-Jun-11 11:57N 48°31' W 122°37'0 0.0
2018-Jun-11 11:27N 48°31' W 122°37'0 0.0
2018-Jun-11 10:57N 48°31' W 122°37'0 0.0
2018-Jun-11 10:27N 48°31' W 122°37'0 0.0
2018-Jun-11 09:57N 48°31' W 122°37'0 0.0
2018-Jun-11 09:09N 48°31' W 122°37'0 0.0
2018-Jun-11 08:57N 48°31' W 122°37'0 0.0
2018-Jun-11 08:27N 48°31' W 122°37'0 0.0
2018-Jun-11 07:57N 48°31' W 122°37'0 0.0
2018-Jun-11 07:27N 48°31' W 122°37'0 0.0
2018-Jun-11 06:57N 48°31' W 122°37'0 0.0
2018-Jun-11 06:27N 48°31' W 122°37'0 0.0
2018-Jun-11 05:45N 48°31' W 122°37'0 0.0
2018-Jun-11 05:27N 48°31' W 122°37'0 0.0
2018-Jun-11 04:45N 48°31' W 122°37'0 0.0
2018-Jun-11 04:27N 48°31' W 122°37'0 0.0
2018-Jun-11 03:57N 48°31' W 122°37'0 0.0
2018-Jun-11 03:27N 48°31' W 122°37'0 0.0
2018-Jun-11 02:57N 48°31' W 122°37'0 0.0
2018-Jun-11 02:27N 48°31' W 122°37'0 0.0
2018-Jun-11 01:57N 48°31' W 122°37'0 0.0
2018-Jun-11 01:27N 48°31' W 122°37'0 0.0
2018-Jun-11 00:57N 48°31' W 122°37'0 0.0
2018-Jun-11 00:27N 48°31' W 122°37'0 0.0
2018-Jun-10 23:57N 48°31' W 122°37'  
Track history (hours):
 
Tides and Currents Weather Stations Pressure Air Temp Water Temp Dewpoint Dewpoint Depression Visibility Wind Speed Wind Dir Waves Ship Positions

American Constellation

Owner: American Cruise Lines, Inc., Guilford, CT. More information available from US FCC via Universal Licensing System and Coast Guard Vessel Documentation Center.

Last reported at 2018-Jun-20 23:36 UTC. Time now 2018-Jun-25 11:57 UTC.
Position N 58°16' W 135°39'.

Length 82 m; draft 3 m.

Type: Passenger vessel. MMSI: 367764750.

Date/timePositionNaut miles runAvg speedWind from/ knotsBaromVisibWave heightAir tempDewpointWater temp
2018-Jun-20 23:36N 58°16' W 135°39'111.2
2018-Jun-20 23:30N 58°16' W 135°41'3 5.6
2018-Jun-20 23:00N 58°17' W 135°46'1 1.3
2018-Jun-20 22:30N 58°18' W 135°46'510.8
2018-Jun-20 22:00N 58°20' W 135°55'510.9
2018-Jun-20 21:30N 58°26' W 135°56'2 4.2
2018-Jun-20 20:59N 58°27' W 135°53'0 0.0
2018-Jun-20 20:29N 58°27' W 135°53'0 0.0
2018-Jun-20 19:59N 58°27' W 135°53'0 0.0
2018-Jun-20 19:29N 58°27' W 135°53'0 0.0
2018-Jun-20 18:59N 58°27' W 135°53'0 0.0
2018-Jun-20 18:29N 58°27' W 135°53'0 0.0
2018-Jun-20 17:59N 58°27' W 135°53'0 0.9
2018-Jun-20 17:30N 58°27' W 135°54'3 6.1
2018-Jun-20 17:00N 58°27' W 135°60'510.2
2018-Jun-20 16:31N 58°31' W 136°05'4 7.9
2018-Jun-20 16:00N 58°34' W 136°08'510.7
2018-Jun-20 15:30N 58°39' W 136°15'4 0.3
2018-Jun-20 03:46N 58°41' W 136°20'313.3
2018-Jun-20 03:30N 58°44' W 136°22'2 0.3
2018-Jun-19 19:15N 58°45' W 136°17'311.8
2018-Jun-19 18:59N 58°43' W 136°13'511.7
2018-Jun-19 18:31N 58°39' W 136°05'2 3.2
2018-Jun-19 18:00N 58°38' W 136°02'3 6.7
2018-Jun-19 17:31N 58°35' W 136°03'510.5
2018-Jun-19 17:00N 58°30' W 136°03'4 8.0
2018-Jun-19 16:31N 58°26' W 135°60'4 7.2
2018-Jun-19 16:01N 58°27' W 135°53'0 0.0
2018-Jun-19 15:31N 58°27' W 135°53'0 0.0
2018-Jun-19 15:01N 58°27' W 135°53'2 4.6
2018-Jun-19 14:30N 58°26' W 135°56'5 9.3
2018-Jun-19 14:00N 58°21' W 135°57'4 8.5
2018-Jun-19 13:30N 58°19' W 135°49'4 8.5
2018-Jun-19 13:00N 58°18' W 135°42'4 8.5
2018-Jun-19 12:30N 58°16' W 135°34'5 8.7
2018-Jun-19 11:59N 58°15' W 135°26'  
2018-Jun-14 04:22N 54°39' W 130°45'3 9.3
2018-Jun-14 04:00N 54°36' W 130°44'4 8.7
2018-Jun-14 03:30N 54°31' W 130°43'5 9.3
2018-Jun-14 03:00N 54°27' W 130°40'5 9.4
2018-Jun-14 02:30N 54°23' W 130°38'5 9.4
2018-Jun-14 02:00N 54°18' W 130°35'5 9.7
2018-Jun-14 01:30N 54°14' W 130°30'5 9.9
2018-Jun-14 01:00N 54°10' W 130°26'5 9.6
2018-Jun-14 00:30N 54°06' W 130°21'5 9.4
2018-Jun-14 00:00N 54°03' W 130°15'5 9.7
2018-Jun-13 23:30N 53°58' W 130°12'4 8.9
2018-Jun-13 23:00N 53°54' W 130°09'5 9.5
2018-Jun-13 22:31N 53°51' W 130°02'5 9.3
2018-Jun-13 22:00N 53°48' W 129°57'85 9.2
2018-Jun-13 12:46N 52°39' W 128°32'2 9.3
2018-Jun-13 12:31N 52°37' W 128°30'610.7
2018-Jun-13 12:00N 52°32' W 128°28'510.3
2018-Jun-13 11:30N 52°27' W 128°28'5 9.0
2018-Jun-13 11:00N 52°23' W 128°31'4 8.6
2018-Jun-13 10:30N 52°18' W 128°30'5 9.7
2018-Jun-13 10:00N 52°16' W 128°23'510.9
2018-Jun-13 09:30N 52°14' W 128°15'510.0
2018-Jun-13 09:00N 52°12' W 128°07'4 8.4
2018-Jun-13 08:30N 52°08' W 128°08'4 8.8
2018-Jun-13 08:00N 52°04' W 128°03'5 9.6
2018-Jun-13 07:30N 52°03' W 127°56'510.1
2018-Jun-13 07:00N 51°58' W 127°56'510.2
2018-Jun-13 06:30N 51°53' W 127°56'510.6
2018-Jun-13 06:00N 51°47' W 127°56'510.9
2018-Jun-13 05:30N 51°42' W 127°55'611.9
2018-Jun-13 05:01N 51°36' W 127°53'612.3
2018-Jun-13 04:30N 51°30' W 127°52'612.6
2018-Jun-13 04:01N 51°24' W 127°52'612.2
2018-Jun-13 03:31N 51°18' W 127°53'612.1
2018-Jun-13 03:00N 51°12' W 127°51'612.5
2018-Jun-13 02:30N 51°07' W 127°45'612.7
2018-Jun-13 02:00N 51°02' W 127°38'713.0
2018-Jun-13 01:30N 50°58' W 127°30'714.0
2018-Jun-13 01:01N 50°53' W 127°22'713.2
2018-Jun-13 00:31N 50°50' W 127°12'612.7
2018-Jun-13 00:00N 50°47' W 127°04'713.1
2018-Jun-12 23:30N 50°43' W 126°56'6110.8
2018-Jun-12 17:50N 50°20' W 125°26'3 9.7
2018-Jun-12 17:30N 50°17' W 125°24'611.3
2018-Jun-12 17:00N 50°12' W 125°22'5 9.6
2018-Jun-12 16:30N 50°07' W 125°19'4 8.1
2018-Jun-12 16:00N 50°04' W 125°15'5 9.5
2018-Jun-12 15:30N 49°60' W 125°13'4 7.4
2018-Jun-12 15:00N 49°57' W 125°08'3 7.0
2018-Jun-12 14:30N 49°55' W 125°04'3 6.8
2018-Jun-12 14:01N 49°53' W 125°00'3 6.3
2018-Jun-12 13:30N 49°51' W 124°56'3 7.0
2018-Jun-12 13:00N 49°48' W 124°52'3 7.0
2018-Jun-12 12:30N 49°46' W 124°49'4 7.0
2018-Jun-12 12:00N 49°44' W 124°44'4 7.6
2018-Jun-12 11:30N 49°42' W 124°39'4 7.6
2018-Jun-12 11:00N 49°40' W 124°35'4 7.7
2018-Jun-12 10:31N 49°37' W 124°30'5 7.7
2018-Jun-12 09:50N 49°34' W 124°23'3 7.7
2018-Jun-12 09:30N 49°33' W 124°20'9 8.9
2018-Jun-12 08:31N 49°29' W 124°08'1 9.9
2018-Jun-12 08:28N 49°28' W 124°08'5 9.9
2018-Jun-12 07:57N 49°25' W 124°02'2111.0
2018-Jun-12 06:02N 49°11' W 123°38'111.3
2018-Jun-12 05:56N 49°10' W 123°36'611.6
2018-Jun-12 05:22N 49°05' W 123°30'511.6
2018-Jun-12 04:58N 49°01' W 123°25'511.1
2018-Jun-12 04:30N 48°58' W 123°19'610.8
2018-Jun-12 03:59N 48°54' W 123°13'510.7
2018-Jun-12 03:29N 48°51' W 123°06'510.4
2018-Jun-12 02:59N 48°48' W 123°00'4 8.8
2018-Jun-12 02:30N 48°44' W 122°59'5 9.6
2018-Jun-12 02:00N 48°39' W 123°02'4 8.7
2018-Jun-12 01:30N 48°35' W 123°02'3 5.1
2018-Jun-12 01:00N 48°32' W 123°01'0 0.0
2018-Jun-12 00:29N 48°32' W 123°01'0 0.0
2018-Jun-11 23:59N 48°32' W 123°01'0 0.0
2018-Jun-11 23:26N 48°32' W 123°01'0 0.0
2018-Jun-11 22:59N 48°32' W 123°01'0 0.0
2018-Jun-11 22:29N 48°32' W 123°01'0 0.0
2018-Jun-11 21:59N 48°32' W 123°01'0 0.0
2018-Jun-11 21:26N 48°32' W 123°01'0 0.0
2018-Jun-11 20:59N 48°32' W 123°01'0 0.0
2018-Jun-11 20:23N 48°32' W 123°01'0 0.0
2018-Jun-11 19:59N 48°32' W 123°01'0 0.0
2018-Jun-11 19:29N 48°32' W 123°01'0 0.0
2018-Jun-11 18:59N 48°32' W 123°01'0 0.0
2018-Jun-11 18:20N 48°32' W 123°01'0 0.0
2018-Jun-11 17:50N 48°32' W 123°01'0 0.0
2018-Jun-11 17:29N 48°32' W 123°01'0 0.0
2018-Jun-11 16:59N 48°32' W 123°01'0 0.0
2018-Jun-11 16:29N 48°32' W 123°01'0 0.0
2018-Jun-11 15:59N 48°32' W 123°01'0 0.0
2018-Jun-11 15:29N 48°32' W 123°01'0 0.0
2018-Jun-11 14:59N 48°32' W 123°01'1 2.1
2018-Jun-11 14:30N 48°33' W 122°59'3 6.6
2018-Jun-11 14:00N 48°34' W 122°55'4 7.4
2018-Jun-11 13:30N 48°33' W 122°49'4 8.9
2018-Jun-11 13:00N 48°31' W 122°43'4 8.0
2018-Jun-11 12:30N 48°31' W 122°37'0 0.0
2018-Jun-11 11:57N 48°31' W 122°37'0 0.0
2018-Jun-11 11:27N 48°31' W 122°37'0 0.0
2018-Jun-11 10:57N 48°31' W 122°37'0 0.0
2018-Jun-11 10:27N 48°31' W 122°37'0 0.0
2018-Jun-11 09:57N 48°31' W 122°37'0 0.0
2018-Jun-11 09:09N 48°31' W 122°37'0 0.0
2018-Jun-11 08:57N 48°31' W 122°37'0 0.0
2018-Jun-11 08:27N 48°31' W 122°37'0 0.0
2018-Jun-11 07:57N 48°31' W 122°37'0 0.0
2018-Jun-11 07:27N 48°31' W 122°37'0 0.0
2018-Jun-11 06:57N 48°31' W 122°37'0 0.0
2018-Jun-11 06:27N 48°31' W 122°37'0 0.0
2018-Jun-11 05:45N 48°31' W 122°37'0 0.0
2018-Jun-11 05:27N 48°31' W 122°37'0 0.0
2018-Jun-11 04:45N 48°31' W 122°37'0 0.0
2018-Jun-11 04:27N 48°31' W 122°37'0 0.0
2018-Jun-11 03:57N 48°31' W 122°37'0 0.0
2018-Jun-11 03:27N 48°31' W 122°37'0 0.0
2018-Jun-11 02:57N 48°31' W 122°37'0 0.0
2018-Jun-11 02:27N 48°31' W 122°37'0 0.0
2018-Jun-11 01:57N 48°31' W 122°37'0 0.0
2018-Jun-11 01:27N 48°31' W 122°37'0 0.0
2018-Jun-11 00:57N 48°31' W 122°37'0 0.0
2018-Jun-11 00:27N 48°31' W 122°37'0 0.0
2018-Jun-10 23:57N 48°31' W 122°37'  

Dump ship's entire track history